Time;durP1;ratioP1;P1;durP2;ratioP2;P2;SDS_P1;SDS_P2;PMS_P1;PMS_P2;Temp;Humidity;BMP_temperature;BMP_pressure;BME280_temperature;BME280_humidity;BME280_pressure;Samples;Min_cycle;Max_cycle;Signal;HPM_P1;HPM_P2
2022/07/25 06:16:39;;;;;;;12.57;9.38;;;;;;;;;;5015725;23;20091;-79
2022/07/25 06:19:06;;;;;;;17.17;8.95;;;;;;;;;;4879145;29;20037;-79
2022/07/25 06:21:32;;;;;;;12.25;9.20;;;;;;;;;;4861911;29;20029;-77
2022/07/25 06:23:58;;;;;;;12.68;9.00;;;;;;;;;;4880241;29;20021;-79
2022/07/25 06:26:25;;;;;;;11.13;8.52;;;;;;;;;;4881186;29;20077;-80
2022/07/25 06:28:51;;;;;;;16.60;9.27;;;;;;;;;;4880071;29;20029;-79
2022/07/25 06:31:18;;;;;;;13.07;8.40;;;;;;;;;;4880660;29;20033;-80
2022/07/25 06:33:44;;;;;;;12.25;8.48;;;;;;;;;;4881671;29;20387;-79
2022/07/25 06:36:11;;;;;;;17.17;8.93;;;;;;;;;;4880893;29;20041;-79
2022/07/25 06:38:37;;;;;;;16.23;8.57;;;;;;;;;;4880761;29;20029;-79
2022/07/25 06:41:03;;;;;;;13.50;8.48;;;;;;;;;;4879978;29;20474;-80
2022/07/25 06:43:30;;;;;;;15.65;8.57;;;;;;;;;;4880032;29;20036;-79
2022/07/25 06:45:56;;;;;;;13.27;8.80;;;;;;;;;;4879549;29;20175;-79
2022/07/25 06:48:23;;;;;;;17.42;9.40;;;;;;;;;;4879557;29;20441;-79
2022/07/25 06:50:50;;;;;;;11.13;8.50;;;;;;;;;;4879872;29;20041;-79
2022/07/25 06:53:17;;;;;;;13.73;8.35;;;;;;;;;;4880226;29;20036;-79
2022/07/25 06:55:44;;;;;;;13.95;9.30;;;;;;;;;;4863460;29;20126;-80
2022/07/25 06:58:10;;;;;;;12.63;8.57;;;;;;;;;;4880447;29;20025;-80
2022/07/25 07:00:37;;;;;;;11.65;8.60;;;;;;;;;;4879889;29;20482;-80
2022/07/25 07:03:03;;;;;;;11.75;8.20;;;;;;;;;;4880491;29;20051;-81
2022/07/25 07:05:31;;;;;;;14.57;8.57;;;;;;;;;;4880258;29;20409;-80
2022/07/25 07:07:57;;;;;;;12.68;8.32;;;;;;;;;;4864522;29;20036;-80
2022/07/25 07:10:24;;;;;;;14.50;8.75;;;;;;;;;;4890503;29;20112;-81
2022/07/25 07:12:50;;;;;;;13.80;7.85;;;;;;;;;;4881037;29;20036;-81
2022/07/25 07:15:17;;;;;;;13.73;7.78;;;;;;;;;;4880211;29;20053;-80
2022/07/25 07:17:43;;;;;;;15.73;8.23;;;;;;;;;;4876831;29;20413;-80
2022/07/25 07:20:09;;;;;;;11.40;7.70;;;;;;;;;;4880429;29;20025;-80
2022/07/25 07:22:46;;;;;;;11.85;7.93;;;;;;;;;;4879793;29;20470;-80
2022/07/25 07:25:13;;;;;;;12.40;8.35;;;;;;;;;;4876432;29;20056;-78
2022/07/25 07:27:40;;;;;;;9.65;7.45;;;;;;;;;;4877851;29;20029;-77
2022/07/25 07:30:06;;;;;;;13.98;7.45;;;;;;;;;;4879684;29;20036;-77
2022/07/25 07:32:32;;;;;;;11.10;7.95;;;;;;;;;;4880018;29;20085;-77
2022/07/25 07:34:59;;;;;;;12.65;7.88;;;;;;;;;;4879428;29;20051;-78
2022/07/25 07:37:25;;;;;;;12.73;7.28;;;;;;;;;;4882523;29;20045;-78
2022/07/25 07:39:52;;;;;;;12.13;7.97;;;;;;;;;;4879521;29;20029;-78
2022/07/25 07:42:18;;;;;;;11.18;8.05;;;;;;;;;;4880013;29;20033;-78
2022/07/25 07:44:44;;;;;;;14.55;7.40;;;;;;;;;;4879340;29;20041;-77
2022/07/25 07:47:11;;;;;;;14.18;7.55;;;;;;;;;;4878875;29;20036;-77
2022/07/25 07:49:37;;;;;;;9.32;7.07;;;;;;;;;;4879135;29;20040;-74
2022/07/25 07:52:03;;;;;;;11.43;6.75;;;;;;;;;;4879804;29;20508;-74
2022/07/25 07:57:15;;;;;;;13.77;7.65;;;;;;;;;;4877611;29;20037;-74
2022/07/25 07:59:41;;;;;;;10.43;7.32;;;;;;;;;;4878476;29;20380;-75
2022/07/25 08:02:07;;;;;;;10.15;7.78;;;;;;;;;;4877471;29;20584;-74
2022/07/25 08:04:34;;;;;;;11.82;8.43;;;;;;;;;;4861031;29;20037;-75
2022/07/25 08:07:00;;;;;;;10.85;7.53;;;;;;;;;;4877715;29;20561;-65
2022/07/25 08:09:26;;;;;;;10.32;6.75;;;;;;;;;;4878671;29;20029;-65
2022/07/25 08:11:52;;;;;;;11.38;7.35;;;;;;;;;;4878578;29;20028;-65
2022/07/25 08:14:19;;;;;;;9.40;6.45;;;;;;;;;;4878204;29;20045;-65
2022/07/25 08:16:45;;;;;;;18.90;7.38;;;;;;;;;;4878318;29;20048;-65
2022/07/25 08:19:11;;;;;;;10.18;6.85;;;;;;;;;;4878632;29;20033;-65
2022/07/25 08:21:38;;;;;;;9.38;6.75;;;;;;;;;;4878326;29;20069;-65
2022/07/25 08:24:04;;;;;;;7.65;6.32;;;;;;;;;;4878267;29;20021;-65
2022/07/25 08:26:32;;;;;;;8.65;6.75;;;;;;;;;;4877752;29;20029;-65
2022/07/25 08:28:59;;;;;;;10.57;7.07;;;;;;;;;;4861508;29;20033;-65
2022/07/25 08:31:26;;;;;;;9.55;7.35;;;;;;;;;;4878357;29;20029;-65
2022/07/25 08:33:53;;;;;;;10.32;6.13;;;;;;;;;;4878405;29;20028;-65
2022/07/25 08:36:19;;;;;;;9.20;6.43;;;;;;;;;;4877968;29;20043;-65
2022/07/25 08:38:46;;;;;;;10.77;6.72;;;;;;;;;;4877456;29;20398;-65
2022/07/25 08:41:12;;;;;;;8.45;6.22;;;;;;;;;;4875923;29;20033;-65
2022/07/25 08:43:38;;;;;;;9.25;6.13;;;;;;;;;;4877204;29;20471;-64
2022/07/25 08:46:06;;;;;;;9.27;6.53;;;;;;;;;;4877298;29;20052;-65
2022/07/25 08:48:32;;;;;;;8.05;5.88;;;;;;;;;;4876893;29;20033;-64
2022/07/25 08:50:59;;;;;;;9.30;6.38;;;;;;;;;;4877415;29;20025;-65
2022/07/25 08:53:26;;;;;;;9.35;6.00;;;;;;;;;;4877523;29;21296;-65
2022/07/25 08:55:52;;;;;;;9.57;6.75;;;;;;;;;;4876818;29;20040;-65
2022/07/25 08:58:19;;;;;;;7.22;5.80;;;;;;;;;;4877019;29;20029;-65
2022/07/25 09:00:46;;;;;;;9.30;6.43;;;;;;;;;;4877303;29;20043;-65
2022/07/25 09:03:12;;;;;;;9.95;5.82;;;;;;;;;;4876689;29;20036;-65
2022/07/25 09:05:39;;;;;;;11.50;6.03;;;;;;;;;;4875769;29;20088;-65
2022/07/25 09:08:12;;;;;;;11.77;5.88;;;;;;;;;;4877099;29;20032;-65
2022/07/25 09:10:41;;;;;;;10.32;5.88;;;;;;;;;;4877896;29;20391;-65
2022/07/25 09:13:12;;;;;;;7.55;6.07;;;;;;;;;;4877328;29;20033;-65
2022/07/25 09:15:45;;;;;;;11.70;6.72;;;;;;;;;;4877363;29;20063;-65
2022/07/25 09:18:13;;;;;;;13.82;6.88;;;;;;;;;;4877891;29;20036;-65
2022/07/25 09:20:53;;;;;;;9.93;6.22;;;;;;;;;;4877341;29;20521;-64
2022/07/25 09:23:33;;;;;;;7.05;5.82;;;;;;;;;;4877497;29;20033;-65
2022/07/25 09:26:13;;;;;;;6.53;5.30;;;;;;;;;;4876809;29;20454;-65
2022/07/25 09:28:41;;;;;;;10.55;5.43;;;;;;;;;;4877377;29;20064;-65
2022/07/25 09:31:08;;;;;;;11.48;5.72;;;;;;;;;;4860947;29;20390;-68
2022/07/25 09:33:43;;;;;;;9.90;5.95;;;;;;;;;;4877494;29;20481;-68
2022/07/25 09:36:10;;;;;;;10.40;5.95;;;;;;;;;;4874417;29;20028;-68
2022/07/25 09:38:37;;;;;;;7.95;5.50;;;;;;;;;;4875079;29;20039;-67
2022/07/25 09:41:03;;;;;;;11.90;5.88;;;;;;;;;;4876315;29;20025;-68
2022/07/25 09:43:36;;;;;;;6.82;5.18;;;;;;;;;;4842250;29;20040;-68
2022/07/25 09:46:02;;;;;;;5.30;4.75;;;;;;;;;;4867495;29;20041;-67
2022/07/25 09:48:29;;;;;;;10.95;5.50;;;;;;;;;;4877154;29;20032;-67
2022/07/25 09:50:56;;;;;;;9.45;5.57;;;;;;;;;;4875281;29;20035;-68
2022/07/25 09:53:22;;;;;;;9.05;5.32;;;;;;;;;;4876293;29;20053;-68
2022/07/25 09:55:49;;;;;;;12.23;5.88;;;;;;;;;;4875626;29;20033;-68
2022/07/25 09:58:15;;;;;;;12.15;5.63;;;;;;;;;;4876922;29;20029;-68
2022/07/25 10:00:42;;;;;;;6.60;4.97;;;;;;;;;;4876556;29;20326;-67
2022/07/25 10:03:20;;;;;;;6.18;5.00;;;;;;;;;;4876726;29;20035;-67
2022/07/25 10:05:49;;;;;;;9.82;5.15;;;;;;;;;;4876957;29;20043;-68
2022/07/25 10:08:16;;;;;;;12.87;5.50;;;;;;;;;;4877415;29;20065;-68
2022/07/25 10:10:42;;;;;;;7.45;4.80;;;;;;;;;;4876575;29;20033;-68
2022/07/25 10:13:16;;;;;;;7.40;4.82;;;;;;;;;;4877226;29;20029;-68
2022/07/25 10:15:50;;;;;;;6.50;4.60;;;;;;;;;;4875096;29;20060;-67
2022/07/25 10:18:17;;;;;;;8.13;5.10;;;;;;;;;;4894016;29;20033;-67
2022/07/25 10:20:44;;;;;;;7.53;4.93;;;;;;;;;;4877495;29;20041;-67
2022/07/25 10:23:20;;;;;;;6.38;4.55;;;;;;;;;;4880173;29;20375;-68
2022/07/25 10:25:46;;;;;;;7.25;4.43;;;;;;;;;;4879386;29;20044;-67
2022/07/25 10:28:17;;;;;;;9.43;4.82;;;;;;;;;;4879966;29;20035;-68
2022/07/25 10:30:43;;;;;;;7.88;4.78;;;;;;;;;;4880324;29;20021;-68
2022/07/25 10:33:12;;;;;;;7.32;4.70;;;;;;;;;;4863397;29;20487;-68
2022/07/25 10:35:38;;;;;;;10.00;4.78;;;;;;;;;;4880107;29;20029;-68
2022/07/25 10:38:05;;;;;;;7.25;5.20;;;;;;;;;;4880148;29;20035;-68
2022/07/25 10:40:39;;;;;;;9.75;4.75;;;;;;;;;;4879998;29;20417;-68
2022/07/25 10:43:05;;;;;;;8.10;4.63;;;;;;;;;;4880028;29;20438;-67
2022/07/25 10:45:39;;;;;;;9.07;5.45;;;;;;;;;;4879719;29;20043;-68
2022/07/25 10:48:28;;;;;;;9.00;5.03;;;;;;;;;;4880047;29;20059;-68
2022/07/25 10:50:57;;;;;;;6.70;4.70;;;;;;;;;;4879859;29;20025;-68
2022/07/25 10:53:47;;;;;;;7.20;5.15;;;;;;;;;;4879656;29;20025;-68
2022/07/25 10:56:18;;;;;;;9.23;5.27;;;;;;;;;;4872423;29;20049;-68
2022/07/25 10:58:54;;;;;;;8.45;4.90;;;;;;;;;;4880090;29;20043;-68
2022/07/25 11:01:20;;;;;;;8.98;4.57;;;;;;;;;;4879627;29;20033;-74
2022/07/25 11:03:46;;;;;;;10.95;4.85;;;;;;;;;;4880121;29;20029;-67
2022/07/25 11:06:14;;;;;;;7.72;4.25;;;;;;;;;;4879602;29;20147;-68
2022/07/25 11:08:40;;;;;;;7.50;4.85;;;;;;;;;;4879417;29;20031;-68
2022/07/25 11:11:07;;;;;;;8.63;4.43;;;;;;;;;;4880041;29;20025;-75
2022/07/25 11:13:37;;;;;;;6.82;4.47;;;;;;;;;;4879635;29;20033;-74
2022/07/25 11:16:04;;;;;;;7.63;4.37;;;;;;;;;;4879483;29;20057;-74
2022/07/25 11:18:33;;;;;;;5.65;4.00;;;;;;;;;;4879948;29;20683;-74
2022/07/25 11:21:03;;;;;;;7.18;4.28;;;;;;;;;;4879783;29;20025;-70
2022/07/25 11:23:29;;;;;;;9.13;4.43;;;;;;;;;;4879124;29;20027;-76
2022/07/25 11:26:08;;;;;;;7.78;4.32;;;;;;;;;;4879117;29;20041;-68
2022/07/25 11:28:46;;;;;;;6.60;4.30;;;;;;;;;;4858477;29;20025;-67
2022/07/25 11:31:13;;;;;;;8.07;4.57;;;;;;;;;;4878289;29;20061;-68
2022/07/25 11:33:41;;;;;;;6.45;4.40;;;;;;;;;;4875900;29;20051;-68
2022/07/25 11:36:08;;;;;;;8.55;4.10;;;;;;;;;;4877983;29;20047;-67
2022/07/25 11:38:34;;;;;;;7.70;4.70;;;;;;;;;;4879075;29;20405;-68
2022/07/25 11:41:01;;;;;;;7.07;4.25;;;;;;;;;;4879002;29;20396;-68
2022/07/25 11:43:27;;;;;;;9.50;4.32;;;;;;;;;;4878498;29;20061;-68
2022/07/25 11:45:56;;;;;;;7.68;4.40;;;;;;;;;;4878632;29;20482;-67
2022/07/25 11:48:30;;;;;;;8.77;4.25;;;;;;;;;;4881703;29;20355;-67
2022/07/25 11:50:56;;;;;;;9.73;4.55;;;;;;;;;;4897531;29;20029;-67
2022/07/25 11:53:24;;;;;;;9.05;4.57;;;;;;;;;;4883575;29;20497;-67
2022/07/25 11:55:51;;;;;;;9.05;4.15;;;;;;;;;;4877428;29;20029;-67
2022/07/25 11:58:17;;;;;;;5.35;4.13;;;;;;;;;;4860299;29;20037;-67
2022/07/25 12:00:48;;;;;;;7.50;4.10;;;;;;;;;;4878423;29;20047;-67
2022/07/25 12:03:21;;;;;;;7.93;4.45;;;;;;;;;;4878363;29;20037;-67
2022/07/25 12:05:48;;;;;;;10.57;4.30;;;;;;;;;;4877687;29;20469;-67
2022/07/25 12:08:15;;;;;;;8.52;4.13;;;;;;;;;;4878541;29;20025;-67
2022/07/25 12:10:42;;;;;;;7.55;4.38;;;;;;;;;;4877827;29;20041;-67
2022/07/25 12:13:09;;;;;;;5.72;4.25;;;;;;;;;;4877937;29;20025;-66
2022/07/25 12:15:37;;;;;;;8.20;4.00;;;;;;;;;;4877832;29;20059;-67
2022/07/25 12:18:04;;;;;;;5.97;3.88;;;;;;;;;;4878074;29;20029;-67
2022/07/25 12:20:33;;;;;;;8.70;4.07;;;;;;;;;;4877397;29;20037;-67
2022/07/25 12:23:01;;;;;;;6.70;4.35;;;;;;;;;;4871451;29;20032;-67
2022/07/25 12:25:28;;;;;;;8.10;4.30;;;;;;;;;;4868913;29;20039;-67
2022/07/25 12:27:57;;;;;;;7.20;3.80;;;;;;;;;;4860888;29;20035;-67
2022/07/25 12:30:24;;;;;;;6.10;4.47;;;;;;;;;;4861261;29;20029;-67
2022/07/25 12:32:50;;;;;;;7.05;4.00;;;;;;;;;;4877955;29;20398;-67
2022/07/25 12:35:17;;;;;;;6.22;4.60;;;;;;;;;;4876599;29;20025;-67
2022/07/25 12:37:43;;;;;;;5.95;4.18;;;;;;;;;;4877723;29;20456;-67
2022/07/25 12:40:10;;;;;;;8.82;4.28;;;;;;;;;;4877582;29;20028;-67
2022/07/25 12:42:37;;;;;;;5.65;4.40;;;;;;;;;;4877493;29;20025;-67
2022/07/25 12:45:04;;;;;;;6.22;4.20;;;;;;;;;;4877201;29;20051;-67
2022/07/25 12:47:30;;;;;;;5.22;4.15;;;;;;;;;;4877640;29;20025;-65
2022/07/25 12:49:56;;;;;;;7.25;4.03;;;;;;;;;;4890673;29;20035;-65
2022/07/25 12:52:23;;;;;;;5.30;3.70;;;;;;;;;;4896048;29;20501;-65
2022/07/25 12:54:49;;;;;;;9.15;4.25;;;;;;;;;;4880867;29;20036;-66
2022/07/25 12:57:16;;;;;;;7.35;4.53;;;;;;;;;;4860452;29;20459;-65
2022/07/25 12:59:42;;;;;;;7.20;4.10;;;;;;;;;;4877136;29;20040;-66
2022/07/25 13:02:08;;;;;;;7.90;4.20;;;;;;;;;;4877205;29;20422;-65
2022/07/25 13:04:35;;;;;;;8.70;4.03;;;;;;;;;;4860196;29;20037;-66
2022/07/25 13:07:01;;;;;;;8.88;4.50;;;;;;;;;;4877085;29;20025;-65
2022/07/25 13:09:28;;;;;;;6.00;4.22;;;;;;;;;;4877104;29;20029;-66
2022/07/25 13:11:55;;;;;;;13.77;3.92;;;;;;;;;;4877175;29;20028;-66
2022/07/25 13:14:21;;;;;;;10.40;4.00;;;;;;;;;;4876305;29;20039;-63
2022/07/25 13:16:47;;;;;;;7.05;4.15;;;;;;;;;;4875931;29;20049;-66
2022/07/25 13:19:15;;;;;;;5.90;4.22;;;;;;;;;;4876589;29;20390;-66
2022/07/25 13:21:41;;;;;;;7.75;4.22;;;;;;;;;;4876824;29;20490;-66
2022/07/25 13:24:08;;;;;;;6.38;3.70;;;;;;;;;;4877141;29;20490;-66
2022/07/25 13:26:35;;;;;;;9.32;4.05;;;;;;;;;;4877288;29;20033;-65
2022/07/25 13:29:02;;;;;;;6.60;4.13;;;;;;;;;;4877324;29;20044;-65
2022/07/25 13:31:29;;;;;;;4.55;4.15;;;;;;;;;;4876788;29;20051;-66
2022/07/25 13:33:55;;;;;;;7.32;4.55;;;;;;;;;;4876430;29;20035;-65
2022/07/25 13:36:21;;;;;;;7.18;4.07;;;;;;;;;;4876902;29;20478;-65
2022/07/25 13:38:48;;;;;;;6.43;3.78;;;;;;;;;;4876078;29;20338;-66
2022/07/25 13:41:14;;;;;;;6.53;3.92;;;;;;;;;;4889673;29;20027;-66
2022/07/25 13:43:42;;;;;;;6.25;4.00;;;;;;;;;;4895820;29;20050;-66
2022/07/25 13:46:08;;;;;;;5.75;4.22;;;;;;;;;;4895279;29;20040;-65
2022/07/25 13:48:35;;;;;;;8.30;4.20;;;;;;;;;;4895140;29;20084;-66
2022/07/25 13:51:02;;;;;;;8.48;4.43;;;;;;;;;;4895267;29;20533;-66
2022/07/25 13:53:28;;;;;;;5.38;4.28;;;;;;;;;;4895103;29;20031;-65
2022/07/25 13:55:55;;;;;;;6.10;3.75;;;;;;;;;;4896895;29;20075;-66
2022/07/25 13:58:22;;;;;;;6.10;3.88;;;;;;;;;;4899423;29;20025;-66
2022/07/25 14:00:48;;;;;;;6.57;4.03;;;;;;;;;;4898942;29;20039;-66
2022/07/25 14:03:14;;;;;;;7.93;4.20;;;;;;;;;;4898435;29;20043;-65
2022/07/25 14:05:40;;;;;;;11.90;4.22;;;;;;;;;;4898828;29;20474;-66
2022/07/25 14:08:07;;;;;;;8.07;3.72;;;;;;;;;;4898425;29;20029;-66
2022/07/25 14:10:34;;;;;;;9.20;4.78;;;;;;;;;;4892026;29;20029;-65
2022/07/25 14:13:00;;;;;;;4.82;3.63;;;;;;;;;;4880136;29;20025;-66
2022/07/25 14:15:27;;;;;;;7.43;3.70;;;;;;;;;;4880604;29;20043;-66
2022/07/25 14:17:53;;;;;;;5.95;3.72;;;;;;;;;;4882551;29;20047;-66
2022/07/25 14:20:19;;;;;;;5.90;4.10;;;;;;;;;;4879908;29;20033;-66
2022/07/25 14:22:46;;;;;;;4.95;4.10;;;;;;;;;;4880165;29;20025;-66
2022/07/25 14:25:12;;;;;;;7.88;3.83;;;;;;;;;;4879620;29;20043;-66
2022/07/25 14:27:38;;;;;;;6.13;3.95;;;;;;;;;;4880085;29;20029;-66
2022/07/25 14:30:05;;;;;;;6.85;3.72;;;;;;;;;;4880090;29;20033;-65
2022/07/25 14:32:32;;;;;;;5.63;4.10;;;;;;;;;;4879688;29;20080;-66
2022/07/25 14:35:00;;;;;;;7.88;3.50;;;;;;;;;;4879650;29;20028;-66
2022/07/25 14:37:27;;;;;;;8.68;3.80;;;;;;;;;;4879747;29;20524;-66
2022/07/25 14:39:53;;;;;;;6.75;3.95;;;;;;;;;;4879822;29;20549;-66
2022/07/25 14:42:20;;;;;;;7.60;3.88;;;;;;;;;;4879839;29;20033;-66
2022/07/25 14:44:46;;;;;;;7.55;4.13;;;;;;;;;;4879360;29;20040;-65
2022/07/25 14:47:12;;;;;;;8.75;4.20;;;;;;;;;;4879571;29;20433;-66
2022/07/25 14:49:39;;;;;;;8.32;3.88;;;;;;;;;;4880254;29;20035;-66
2022/07/25 14:52:06;;;;;;;7.65;4.00;;;;;;;;;;4880315;29;20397;-65
2022/07/25 14:54:32;;;;;;;9.43;3.97;;;;;;;;;;4880625;29;20040;-66
2022/07/25 14:56:58;;;;;;;9.68;4.03;;;;;;;;;;4888225;29;20083;-67
2022/07/25 14:59:25;;;;;;;7.55;3.90;;;;;;;;;;4891546;29;20025;-68
2022/07/25 15:01:51;;;;;;;11.38;4.50;;;;;;;;;;4880314;29;20417;-68
2022/07/25 15:04:20;;;;;;;8.27;4.20;;;;;;;;;;4880643;29;20021;-68
2022/07/25 15:06:50;;;;;;;6.40;3.92;;;;;;;;;;4879976;29;20048;-68
2022/07/25 15:09:17;;;;;;;5.80;4.20;;;;;;;;;;4880665;29;20027;-68
2022/07/25 15:11:44;;;;;;;8.70;4.15;;;;;;;;;;4880381;29;20405;-68
2022/07/25 15:14:10;;;;;;;7.50;4.22;;;;;;;;;;4880112;29;20029;-67
2022/07/25 15:16:37;;;;;;;7.80;4.47;;;;;;;;;;4880225;29;20049;-67
2022/07/25 15:19:04;;;;;;;12.27;4.40;;;;;;;;;;4880318;29;20029;-67
2022/07/25 15:21:30;;;;;;;8.48;4.10;;;;;;;;;;4880110;29;20068;-67
2022/07/25 15:23:58;;;;;;;5.32;3.92;;;;;;;;;;4880197;29;20036;-67
2022/07/25 15:26:25;;;;;;;4.85;3.85;;;;;;;;;;4880160;29;20498;-67
2022/07/25 15:28:51;;;;;;;11.70;4.63;;;;;;;;;;4879921;29;20037;-67
